Track Шведова Ярослав

Time Latitude Longitude Accuracy (66% radius in meters) Altitude (meters) Speed (km/hour) Bearing (degrees) Battery (%) GPS flag
07:40:37 57.204137 60.117977 0 0 0 0 1 delete
07:40:36 57.204163 60.117932 0 0 0 0 1 delete
07:40:35 57.204190 60.117887 0 0 0 0 1 delete
07:40:34 57.204218 60.117838 0 0 0 0 1 delete
07:40:33 57.204245 60.117780 0 0 0 0 1 delete
07:40:32 57.204275 60.117740 0 0 0 0 1 delete
07:40:31 57.204303 60.117697 0 0 0 0 1 delete
07:40:30 57.204337 60.117657 0 0 0 0 1 delete
07:40:29 57.204378 60.117613 0 0 0 0 1 delete
07:40:28 57.204427 60.117578 0 0 0 0 1 delete
07:40:27 57.204468 60.117543 0 0 0 0 1 delete
07:40:26 57.204508 60.117508 0 0 0 0 1 delete
07:40:25 57.204550 60.117485 0 0 0 0 1 delete
07:40:24 57.204595 60.117473 0 0 0 0 1 delete
07:40:23 57.204640 60.117460 0 0 0 0 1 delete
07:40:22 57.204690 60.117458 0 0 0 0 1 delete
07:40:21 57.204735 60.117460 0 0 0 0 1 delete
07:40:20 57.204777 60.117463 0 0 0 0 1 delete
07:40:19 57.204818 60.117475 0 0 0 0 1 delete
07:40:18 57.204855 60.117482 0 0 0 0 1 delete
07:40:17 57.204895 60.117497 0 0 0 0 1 delete
07:40:16 57.204943 60.117510 0 0 0 0 1 delete
07:40:15 57.204993 60.117520 0 0 0 0 1 delete
07:40:14 57.205035 60.117533 0 0 0 0 1 delete
07:40:13 57.205077 60.117545 0 0 0 0 1 delete
07:40:12 57.205107 60.117553 0 0 0 0 1 delete
07:40:11 57.205133 60.117565 0 0 0 0 1 delete
07:40:10 57.205160 60.117575 0 0 0 0 1 delete
07:40:09 57.205187 60.117598 0 0 0 0 1 delete
07:40:08 57.205207 60.117618 0 0 0 0 1 delete
07:40:07 57.205218 60.117633 0 0 0 0 1 delete
07:40:06 57.205223 60.117633 0 0 0 0 1 delete
07:40:05 57.205230 60.117622 0 0 0 0 1 delete
07:40:04 57.205238 60.117590 0 0 0 0 1 delete
07:40:03 57.205245 60.117548 0 0 0 0 1 delete
07:40:02 57.205252 60.117508 0 0 0 0 1 delete
07:40:01 57.205257 60.117468 0 0 0 0 1 delete
07:40:00 57.205260 60.117432 0 0 0 0 1 delete
07:39:59 57.205268 60.117390 0 0 0 0 1 delete
07:39:58 57.205275 60.117348 0 0 0 0 1 delete
07:39:57 57.205273 60.117313 0 0 0 0 1 delete
07:39:56 57.205273 60.117277 0 0 0 0 1 delete
07:39:55 57.205263 60.117242 0 0 0 0 1 delete
07:39:54 57.205255 60.117208 0 0 0 0 1 delete
07:39:53 57.205243 60.117173 0 0 0 0 1 delete
07:39:52 57.205227 60.117138 0 0 0 0 1 delete
07:39:51 57.205215 60.117102 0 0 0 0 1 delete
07:39:50 57.205208 60.117060 0 0 0 0 1 delete
07:39:49 57.205205 60.117020 0 0 0 0 1 delete
07:39:48 57.205205 60.116980 0 0 0 0 1 delete